Time;durP1;ratioP1;P1;durP2;ratioP2;P2;SDS_P1;SDS_P2;PMS_P1;PMS_P2;Temp;Humidity;BMP_temperature;BMP_pressure;BME280_temperature;BME280_humidity;BME280_pressure;Samples;Min_cycle;Max_cycle;Signal;HPM_P1;HPM_P2
2023/06/28 12:11:39;;;;;;;3.30;1.30;;;;;;;25.38;32.31;99562.05;106006;1283;612337;-81
2023/06/28 12:14:07;;;;;;;3.30;1.10;;;;;;;25.45;32.58;99562.76;103502;1263;5172948;-82
2023/06/28 12:16:35;;;;;;;3.10;1.10;;;;;;;25.31;32.51;99555.64;107524;1267;72290;-81
2023/06/28 12:19:02;;;;;;;2.50;1.30;;;;;;;25.22;33.02;99562.30;107467;1264;71666;-81
2023/06/28 12:21:30;;;;;;;3.90;1.00;;;;;;;25.14;32.81;99561.38;107410;1264;71625;-81
2023/06/28 12:24:12;;;;;;;4.10;1.10;;;;;;;25.09;33.03;99556.55;107426;1264;60565;-83
2023/06/28 12:26:43;;;;;;;3.20;1.20;;;;;;;25.10;33.35;99561.09;107537;1264;61351;-81
2023/06/28 12:29:11;;;;;;;2.90;1.20;;;;;;;25.13;33.38;99562.54;107398;1264;72368;-81
2023/06/28 12:31:40;;;;;;;3.30;1.20;;;;;;;25.17;33.05;99559.05;107397;1264;71493;-81
2023/06/28 12:34:08;;;;;;;2.40;1.10;;;;;;;25.15;32.38;99562.80;107425;1266;71428;-80
2023/06/28 12:36:39;;;;;;;4.80;1.30;;;;;;;25.10;32.43;99563.66;107438;1267;59612;-79
2023/06/28 12:39:08;;;;;;;3.30;1.30;;;;;;;25.13;32.63;99558.16;107403;1266;59644;-80
2023/06/28 12:41:35;;;;;;;3.80;1.20;;;;;;;25.17;32.21;99553.36;107457;1264;73032;-81
2023/06/28 12:44:03;;;;;;;2.20;1.10;;;;;;;25.29;31.48;99548.29;107439;1264;72551;-80
2023/06/28 12:46:31;;;;;;;3.20;1.10;;;;;;;25.42;31.36;99544.23;107414;1266;72769;-81
2023/06/28 12:49:02;;;;;;;3.20;1.10;;;;;;;25.57;30.68;99543.30;107264;1266;59931;-81
2023/06/28 12:51:30;;;;;;;4.30;1.80;;;;;;;25.66;30.94;99547.33;107368;1267;59582;-80
2023/06/28 12:53:59;;;;;;;3.20;1.40;;;;;;;25.75;30.24;99543.85;107363;1267;73087;-80
2023/06/28 12:56:26;;;;;;;3.60;1.50;;;;;;;25.75;29.41;99548.55;107219;1267;72977;-80
2023/06/28 12:58:54;;;;;;;2.90;1.30;;;;;;;25.61;29.70;99545.73;107371;1267;71440;-80
2023/06/28 13:01:22;;;;;;;4.40;1.30;;;;;;;25.50;30.17;99543.88;107331;1267;60078;-81
2023/06/28 13:03:54;;;;;;;3.10;1.30;;;;;;;25.53;31.20;99535.46;107391;1266;60031;-81
2023/06/28 13:06:22;;;;;;;4.20;1.40;;;;;;;25.75;30.81;99538.23;107384;1265;71630;-81
2023/06/28 13:08:52;;;;;;;2.50;1.00;;;;;;;25.95;30.65;99529.89;107422;1267;72781;-80
2023/06/28 13:11:20;;;;;;;3.30;1.40;;;;;;;26.13;30.08;99522.52;107398;1266;71485;-81
2023/06/28 13:13:47;;;;;;;4.80;1.30;;;;;;;26.19;29.73;99526.74;107287;1267;60214;-80
2023/06/28 13:16:15;;;;;;;6.10;1.50;;;;;;;26.06;29.84;99531.17;107310;1266;59508;-81
2023/06/28 13:18:43;;;;;;;4.90;1.60;;;;;;;25.91;30.55;99540.11;107743;1258;73094;-80
2023/06/28 13:21:10;;;;;;;3.50;1.20;;;;;;;25.73;29.83;99532.13;107758;1256;72550;-81
2023/06/28 13:23:38;;;;;;;5.30;1.60;;;;;;;25.39;30.12;99529.06;107868;1260;72645;-82
2023/06/28 13:26:06;;;;;;;6.00;1.50;;;;;;;25.24;30.30;99537.25;107758;1260;60884;-78
2023/06/28 13:28:34;;;;;;;7.00;1.60;;;;;;;25.26;30.91;99535.92;107745;1258;59505;-81
2023/06/28 13:31:02;;;;;;;3.60;1.40;;;;;;;25.39;31.23;99534.98;107709;1261;73314;-83
2023/06/28 13:33:30;;;;;;;5.70;1.70;;;;;;;25.54;30.36;99544.05;107805;1257;71867;-80
2023/06/28 13:35:57;;;;;;;2.50;1.30;;;;;;;25.50;30.12;99542.31;107825;1257;72834;-81
2023/06/28 14:11:31;;;;;;;3.40;1.40;;;;;;;24.14;34.75;99574.73;107863;1259;71797;-82
2023/06/28 14:13:59;;;;;;;4.10;1.70;;;;;;;24.21;35.56;99569.52;107810;1259;71246;-82
2023/06/28 14:16:27;;;;;;;4.10;1.40;;;;;;;24.28;35.35;99565.52;107743;1259;72727;-81
2023/06/28 14:18:55;;;;;;;4.10;1.10;;;;;;;24.47;34.32;99569.05;107873;1257;59815;-81
2023/06/28 14:21:47;;;;;;;2.70;1.20;;;;;;;24.85;33.44;99558.09;107735;1257;60032;-80
2023/06/28 14:24:16;;;;;;;5.70;1.60;;;;;;;25.48;32.61;99556.77;107799;1257;73829;-82
2023/06/28 14:27:17;;;;;;;5.40;1.40;;;;;;;26.14;32.53;99557.08;107775;1257;72767;-82
2023/06/28 14:30:31;;;;;;;2.80;1.20;;;;;;;27.04;31.22;99548.14;107810;1257;75270;-81
2023/06/28 14:36:32;;;;;;;5.10;1.30;;;;;;;27.95;29.96;99548.81;107765;1257;61147;-81
2023/06/28 14:39:00;;;;;;;5.70;1.40;;;;;;;28.33;28.90;99551.67;107573;1257;73318;-82
2023/06/28 14:41:28;;;;;;;4.60;1.40;;;;;;;28.19;28.47;99550.89;107798;1257;71632;-79
2023/06/28 14:43:55;;;;;;;3.50;1.30;;;;;;;27.81;28.41;99549.73;107838;1260;72759;-79
2023/06/28 14:46:23;;;;;;;4.20;1.20;;;;;;;27.51;29.13;99544.09;107737;1259;59550;-81
2023/06/28 14:48:51;;;;;;;3.20;1.30;;;;;;;27.53;29.98;99543.14;107776;1260;59541;-80
2023/06/28 14:51:18;;;;;;;4.00;1.30;;;;;;;27.88;29.74;99537.23;107738;1259;72575;-81
2023/06/28 14:53:46;;;;;;;2.40;1.10;;;;;;;28.33;29.31;99540.22;107738;1257;72742;-82
2023/06/28 14:59:01;;;;;;;3.90;1.30;;;;;;;29.06;27.51;99547.01;107826;1257;59580;-81
2023/06/28 15:01:33;;;;;;;3.20;1.40;;;;;;;28.99;27.43;99546.98;107772;1257;59618;-81
2023/06/28 15:04:01;;;;;;;5.70;1.30;;;;;;;28.33;27.68;99545.94;107728;1258;71466;-82
2023/06/28 15:06:29;;;;;;;5.10;1.60;;;;;;;27.37;28.87;99542.93;107851;1257;72930;-81
2023/06/28 15:08:57;;;;;;;3.40;1.10;;;;;;;26.71;30.03;99543.42;107715;1257;71321;-80
2023/06/28 15:11:24;;;;;;;3.30;1.20;;;;;;;26.22;31.03;99544.12;107740;1263;59614;-81
2023/06/28 15:13:52;;;;;;;5.60;1.50;;;;;;;25.87;31.80;99551.81;107975;1257;59548;-80
2023/06/28 15:16:19;;;;;;;4.20;1.30;;;;;;;25.46;32.15;99553.23;108265;1257;73121;-80
2023/06/28 15:18:47;;;;;;;5.10;1.30;;;;;;;25.25;32.76;99556.85;108251;1257;71255;-80
2023/06/28 15:21:15;;;;;;;3.30;1.40;;;;;;;25.20;33.16;99557.59;108214;1257;71447;-81
2023/06/28 15:23:43;;;;;;;3.80;1.40;;;;;;;25.15;33.49;99555.38;108149;1257;59589;-81
2023/06/28 15:26:11;;;;;;;5.20;1.60;;;;;;;25.06;33.71;99559.02;108154;1257;59739;-80
2023/06/28 15:28:39;;;;;;;3.20;1.10;;;;;;;25.15;33.83;99553.81;107852;1260;73191;-81
2023/06/28 15:31:07;;;;;;;3.60;1.50;;;;;;;25.33;33.77;99547.69;107812;1260;72723;-80
2023/06/28 15:33:35;;;;;;;5.00;1.70;;;;;;;25.42;33.47;99544.38;107713;1260;71507;-80
2023/06/28 15:36:03;;;;;;;4.00;1.30;;;;;;;25.26;33.42;99552.48;107732;1260;59273;-80
2023/06/28 15:38:30;;;;;;;2.00;1.20;;;;;;;25.04;34.34;99553.63;107804;1260;59644;-80
2023/06/28 15:40:58;;;;;;;3.00;1.50;;;;;;;24.84;34.60;99548.17;107707;1260;73022;-80
2023/06/28 15:43:26;;;;;;;3.30;1.40;;;;;;;24.65;34.73;99547.38;107699;1260;72815;-82
2023/06/28 15:45:54;;;;;;;3.90;1.30;;;;;;;24.43;34.81;99552.78;107677;1260;72712;-81
2023/06/28 15:48:21;;;;;;;4.60;1.60;;;;;;;24.24;35.52;99550.68;107781;1263;59542;-81
2023/06/28 15:50:49;;;;;;;4.80;1.40;;;;;;;24.08;36.08;99555.27;107697;1258;60063;-80
2023/06/28 15:53:17;;;;;;;5.00;1.60;;;;;;;23.95;36.14;99558.93;107693;1259;71844;-79
2023/06/28 15:55:44;;;;;;;4.40;1.80;;;;;;;23.83;36.51;99559.16;107682;1260;71976;-80
2023/06/28 15:58:14;;;;;;;2.80;1.20;;;;;;;23.76;36.15;99562.81;107685;1260;71447;-80
2023/06/28 16:00:41;;;;;;;3.80;1.30;;;;;;;23.63;36.17;99560.75;107630;1261;59465;-80
2023/06/28 16:03:09;;;;;;;3.50;1.50;;;;;;;23.55;36.65;99568.20;107696;1260;60084;-80
2023/06/28 16:05:37;;;;;;;5.10;1.70;;;;;;;23.52;36.85;99576.79;107841;1260;73106;-80
2023/06/28 16:08:05;;;;;;;6.40;1.50;;;;;;;23.51;36.96;99584.02;107691;1260;71437;-80
2023/06/28 16:10:32;;;;;;;4.50;1.60;;;;;;;23.78;36.85;99574.76;107674;1259;72721;-81
2023/06/28 16:13:03;;;;;;;3.20;1.30;;;;;;;24.46;36.13;99574.94;107703;1260;59566;-81
2023/06/28 16:15:31;;;;;;;3.80;1.60;;;;;;;25.35;34.82;99575.10;107677;1260;59621;-81
2023/06/28 16:17:58;;;;;;;5.20;1.40;;;;;;;26.15;32.23;99565.13;107848;1259;73086;-81
2023/06/28 16:20:26;;;;;;;3.30;1.60;;;;;;;26.17;31.61;99570.14;107698;1260;73423;-80
2023/06/28 16:22:54;;;;;;;2.60;1.30;;;;;;;25.67;31.34;99571.23;107714;1259;72705;-81
2023/06/28 16:25:21;;;;;;;4.90;1.70;;;;;;;25.14;30.45;99566.04;107882;1259;60094;-81
2023/06/28 16:27:51;;;;;;;3.20;1.20;;;;;;;24.71;30.96;99571.14;107719;1257;59734;-80
2023/06/28 16:30:19;;;;;;;2.80;1.40;;;;;;;24.40;30.96;99577.52;107675;1259;71937;-81
2023/06/28 16:32:46;;;;;;;4.10;1.70;;;;;;;24.57;30.63;99578.82;107614;1259;72681;-79
2023/06/28 16:35:14;;;;;;;5.60;2.00;;;;;;;25.17;30.03;99572.32;107631;1260;71466;-79
2023/06/28 16:37:42;;;;;;;4.90;1.90;;;;;;;25.82;29.42;99566.95;107842;1260;60475;-81
2023/06/28 16:40:10;;;;;;;3.00;1.80;;;;;;;26.43;28.89;99561.30;107721;1259;60297;-82
2023/06/28 16:42:38;;;;;;;4.80;2.00;;;;;;;26.99;28.17;99564.11;107691;1264;73900;-82
2023/06/28 16:45:07;;;;;;;4.10;1.80;;;;;;;27.44;27.56;99562.05;107717;1260;74380;-80
2023/06/28 16:48:09;;;;;;;2.80;1.50;;;;;;;27.54;27.53;99562.33;107679;1258;73756;-82
2023/06/28 16:50:38;;;;;;;4.10;1.70;;;;;;;27.56;27.60;99563.27;107699;1257;60290;-81
2023/06/28 16:53:06;;;;;;;5.30;2.20;;;;;;;27.57;27.61;99560.84;107693;1259;60300;-80
2023/06/28 16:55:34;;;;;;;5.00;2.10;;;;;;;27.52;28.15;99556.77;107793;1257;72514;-81
2023/06/28 16:58:01;;;;;;;5.50;2.10;;;;;;;27.64;28.24;99553.84;107702;1257;72721;-81
2023/06/28 17:00:29;;;;;;;5.30;1.60;;;;;;;27.62;28.61;99557.69;107708;1257;71924;-82
2023/06/28 17:02:57;;;;;;;3.20;1.40;;;;;;;27.66;29.02;99553.69;107671;1259;61926;-80
2023/06/28 17:05:24;;;;;;;4.70;1.70;;;;;;;27.64;29.19;99556.82;107685;1257;59177;-82
2023/06/28 17:07:52;;;;;;;3.30;1.40;;;;;;;27.50;29.89;99557.96;107732;1260;73838;-81
2023/06/28 17:10:20;;;;;;;4.00;1.40;;;;;;;27.51;30.55;99562.20;107738;1257;73241;-80
2023/06/28 17:12:47;;;;;;;3.90;1.50;;;;;;;27.63;30.90;99561.69;107724;1257;72711;-82
2023/06/28 17:15:15;;;;;;;3.20;1.40;;;;;;;27.62;30.79;99559.41;107778;1257;60441;-81
2023/06/28 17:17:43;;;;;;;2.90;1.40;;;;;;;27.49;30.55;99558.44;107767;1257;60450;-81
2023/06/28 17:20:15;;;;;;;4.40;1.60;;;;;;;27.32;31.20;99554.78;107888;1257;72641;-82
2023/06/28 17:22:43;;;;;;;4.00;1.50;;;;;;;27.28;31.47;99556.13;107764;1262;71921;-86
2023/06/28 17:25:11;;;;;;;3.70;1.50;;;;;;;27.28;31.58;99556.36;100165;1257;10002175;-88
2023/06/28 17:27:39;;;;;;;3.70;1.60;;;;;;;27.21;31.71;99562.01;92744;1257;10003532;-88
2023/06/28 17:30:08;;;;;;;4.40;1.70;;;;;;;27.00;32.05;99563.17;107552;1257;60403;-83
2023/06/28 17:32:35;;;;;;;3.70;1.70;;;;;;;26.83;32.42;99562.55;107766;1256;60475;-87
2023/06/28 17:35:04;;;;;;;5.30;2.00;;;;;;;26.58;33.03;99556.35;107667;1257;72800;-84
2023/06/28 17:37:34;;;;;;;3.20;1.70;;;;;;;26.37;33.34;99550.95;107739;1256;72678;-85
2023/06/28 17:40:02;;;;;;;4.70;2.00;;;;;;;26.06;33.81;99553.77;107690;1257;72757;-87
2023/06/28 17:42:31;;;;;;;5.50;1.70;;;;;;;25.58;34.35;99553.52;107793;1260;59234;-87
2023/06/28 17:44:59;;;;;;;3.60;1.60;;;;;;;25.02;34.78;99554.64;107799;1256;60351;-86
2023/06/28 17:47:26;;;;;;;4.10;2.10;;;;;;;24.44;35.69;99560.56;107821;1259;72588;-86
2023/06/28 17:49:54;;;;;;;;;;;;;;;23.84;36.63;99560.89;92746;1256;20002281;-87
2023/06/28 17:52:21;;;;;;;4.10;1.70;;;;;;;23.37;37.56;99561.31;100245;1256;10001739;-88
2023/06/28 17:54:49;;;;;;;4.80;1.70;;;;;;;23.00;38.00;99564.63;107610;1257;60563;-88
2023/06/28 17:57:18;;;;;;;4.60;1.70;;;;;;;22.70;38.86;99563.34;107663;1262;59039;-86
2023/06/28 17:59:45;;;;;;;4.60;1.70;;;;;;;22.43;39.43;99560.59;107709;1257;73814;-86
2023/06/28 18:02:13;;;;;;;3.90;1.40;;;;;;;22.23;39.83;99564.89;107723;1256;72386;-90
2023/06/28 18:04:43;;;;;;;4.80;1.50;;;;;;;22.10;40.30;99569.59;107779;1257;72838;-87
2023/06/28 18:07:11;;;;;;;4.10;1.60;;;;;;;21.99;40.67;99570.05;107756;1259;60454;-84
2023/06/28 18:09:39;;;;;;;4.90;1.80;;;;;;;21.86;40.93;99566.55;107775;1257;59558;-85
2023/06/28 18:12:07;;;;;;;3.50;1.50;;;;;;;21.78;41.22;99569.86;107668;1257;73087;-85
2023/06/28 18:14:34;;;;;;;4.90;2.10;;;;;;;21.70;41.25;99574.11;107736;1257;71656;-85
2023/06/28 18:17:02;;;;;;;4.30;1.40;;;;;;;21.63;41.62;99576.30;107695;1257;71233;-86
2023/06/28 18:19:30;;;;;;;3.20;1.40;;;;;;;21.54;41.74;99576.23;107626;1257;60356;-85
2023/06/28 18:21:57;;;;;;;3.60;1.60;;;;;;;21.45;42.06;99576.28;107778;1257;61936;-86
2023/06/28 18:24:25;;;;;;;4.40;1.50;;;;;;;21.35;42.18;99579.85;107658;1257;73610;-85
2023/06/28 18:26:53;;;;;;;4.00;1.80;;;;;;;21.24;42.41;99580.13;107555;1257;71809;-86
2023/06/28 18:29:20;;;;;;;3.50;1.50;;;;;;;21.17;42.40;99584.75;92767;1257;20002859;-86
2023/06/28 18:31:48;;;;;;;2.80;1.40;;;;;;;21.08;42.74;99589.83;107549;1257;59788;-88
2023/06/28 18:34:16;;;;;;;4.80;1.80;;;;;;;20.95;43.22;99590.73;107773;1257;72335;-86
2023/06/28 18:36:44;;;;;;;5.90;1.70;;;;;;;20.80;43.59;99597.75;107618;1259;61054;-86
2023/06/28 18:39:12;;;;;;;4.10;1.70;;;;;;;20.70;44.06;99596.30;107613;1257;59001;-85
2023/06/28 18:41:41;;;;;;;5.00;1.80;;;;;;;20.62;44.45;99595.71;107704;1257;73867;-85
2023/06/28 18:44:08;;;;;;;3.60;1.80;;;;;;;20.56;44.41;99599.29;107682;1257;73346;-86
2023/06/28 18:46:37;;;;;;;3.30;1.60;;;;;;;20.48;44.24;99601.59;107796;1257;71124;-85
2023/06/28 18:49:04;;;;;;;3.30;1.40;;;;;;;20.38;44.30;99600.41;107597;1259;60466;-85
2023/06/28 18:51:35;;;;;;;3.90;1.60;;;;;;;20.34;44.50;99607.12;107703;1257;60377;-85
2023/06/28 18:54:04;;;;;;;7.90;2.30;;;;;;;20.30;44.45;99606.99;107678;1257;73925;-86
2023/06/28 18:56:46;;;;;;;3.40;1.60;;;;;;;20.24;44.50;99603.11;107742;1257;71716;-88
2023/06/28 18:59:29;;;;;;;3.20;1.70;;;;;;;20.19;44.40;99600.16;107458;1256;72687;-84
2023/06/28 19:02:04;;;;;;;5.20;1.80;;;;;;;20.16;44.21;99602.80;107540;1256;60331;-85
2023/06/28 19:04:59;;;;;;;4.40;1.70;;;;;;;20.10;44.03;99600.79;107647;1256;59744;-86
2023/06/28 19:07:59;;;;;;;4.50;2.00;;;;;;;20.06;44.19;99601.42;107564;1257;73881;-86
2023/06/28 19:10:43;;;;;;;4.60;1.90;;;;;;;20.01;44.27;99603.23;107579;1257;72735;-84
2023/06/28 19:13:25;;;;;;;5.10;1.90;;;;;;;19.96;44.45;99605.92;107687;1257;72701;-85
2023/06/28 19:16:26;;;;;;;2.90;1.50;;;;;;;19.90;44.48;99606.02;107554;1257;60066;-86
2023/06/28 19:19:27;;;;;;;4.30;1.70;;;;;;;19.84;44.64;99604.35;107777;1257;60257;-86
2023/06/28 19:22:28;;;;;;;3.40;1.70;;;;;;;19.78;44.74;99609.67;107695;1257;73998;-87
2023/06/28 19:25:23;;;;;;;3.70;1.40;;;;;;;19.73;44.84;99606.73;107659;1263;71741;-86
2023/06/28 19:28:24;;;;;;;4.40;1.70;;;;;;;19.71;45.00;99602.26;107645;1257;71505;-86
2023/06/28 19:31:11;;;;;;;3.10;1.60;;;;;;;19.66;45.17;99602.83;107611;1257;60783;-86
2023/06/28 19:34:04;;;;;;;4.20;1.70;;;;;;;19.62;45.43;99600.76;107768;1257;60328;-86
2023/06/28 19:37:04;;;;;;;;;;;;;;;19.58;45.67;99598.59;108114;1254;74019;-85
2023/06/28 19:40:02;;;;;;;4.00;2.10;;;;;;;19.54;45.49;99597.30;107890;1254;74770;-84
2023/06/28 19:43:03;;;;;;;6.10;2.20;;;;;;;19.50;45.55;99597.80;107965;1254;72714;-82
2023/06/28 19:46:04;;;;;;;4.20;1.60;;;;;;;19.43;45.65;99596.23;107909;1256;60857;-81
2023/06/28 19:48:59;;;;;;;2.90;1.50;;;;;;;19.38;45.76;99592.80;107834;1254;61604;-85
2023/06/28 19:51:57;;;;;;;2.60;1.20;;;;;;;19.33;45.97;99591.88;108098;1254;74499;-82
2023/06/28 19:54:58;;;;;;;2.60;1.50;;;;;;;19.28;46.06;99596.90;107920;1254;71416;-81
2023/06/28 19:57:59;;;;;;;3.10;1.20;;;;;;;19.22;46.32;99594.16;107817;1260;72686;-83
2023/06/28 20:00:47;;;;;;;3.10;1.40;;;;;;;19.14;46.66;99595.52;107928;1256;62507;-82
2023/06/28 20:03:15;;;;;;;4.30;1.50;;;;;;;19.11;46.64;99596.05;107957;1254;60058;-82
2023/06/28 20:05:42;;;;;;;3.20;1.40;;;;;;;19.07;46.77;99593.89;107960;1254;73784;-82
2023/06/28 20:08:10;;;;;;;2.90;1.40;;;;;;;19.03;46.87;99593.05;108011;1256;73627;-83
2023/06/28 20:10:38;;;;;;;4.50;1.40;;;;;;;18.97;47.11;99595.13;107963;1256;72776;-81
2023/06/28 20:13:06;;;;;;;4.70;1.40;;;;;;;18.93;47.28;99592.12;107891;1257;60328;-81
2023/06/28 20:15:34;;;;;;;2.50;1.30;;;;;;;18.90;47.50;99593.73;107939;1254;60493;-81
2023/06/28 20:18:01;;;;;;;4.40;1.60;;;;;;;18.89;47.66;99592.95;107984;1254;73884;-82
2023/06/28 20:20:29;;;;;;;5.20;2.10;;;;;;;18.88;47.76;99594.73;107892;1254;72693;-81
2023/06/28 20:22:59;;;;;;;3.90;2.00;;;;;;;18.88;47.90;99591.50;107841;1259;71420;-82
2023/06/28 20:25:28;;;;;;;3.70;1.40;;;;;;;18.88;48.15;99590.11;107895;1254;60459;-81
2023/06/28 20:27:55;;;;;;;2.70;1.40;;;;;;;18.90;48.43;99593.42;107719;1254;60453;-82
2023/06/28 20:30:23;;;;;;;3.40;1.30;;;;;;;18.91;48.54;99593.53;107847;1254;76398;-81
2023/06/28 20:32:53;;;;;;;2.60;1.30;;;;;;;18.95;48.73;99596.00;108125;1256;71850;-82
2023/06/28 20:35:24;;;;;;;3.60;1.20;;;;;;;18.95;48.77;99595.91;107968;1254;72681;-82
2023/06/28 20:37:51;;;;;;;3.60;1.40;;;;;;;18.93;48.43;99601.34;107921;1254;60414;-81
2023/06/28 20:40:19;;;;;;;4.90;1.50;;;;;;;18.90;48.44;99605.40;108033;1257;60338;-81
2023/06/28 20:42:50;;;;;;;2.40;1.20;;;;;;;18.87;48.44;99604.15;107847;1254;73794;-82
2023/06/28 20:45:20;;;;;;;2.90;1.50;;;;;;;18.83;48.62;99605.00;108018;1254;72700;-83
2023/06/28 20:47:49;;;;;;;4.60;1.60;;;;;;;18.78;48.67;99599.89;107829;1259;72457;-82
2023/06/28 20:50:17;;;;;;;4.00;1.80;;;;;;;18.71;49.00;99598.35;107926;1254;60479;-83
2023/06/28 20:52:45;;;;;;;4.20;1.60;;;;;;;18.65;49.29;99601.96;107901;1254;60051;-82
2023/06/28 20:55:12;;;;;;;3.50;1.40;;;;;;;18.60;49.31;99597.56;107928;1254;73263;-81
2023/06/28 20:57:40;;;;;;;2.60;1.50;;;;;;;18.57;49.50;99595.12;107887;1254;72726;-81
2023/06/28 21:00:12;;;;;;;4.30;1.40;;;;;;;18.55;49.55;99592.20;107929;1257;72612;-83
2023/06/28 21:02:40;;;;;;;3.10;1.50;;;;;;;18.59;49.59;99591.25;107900;1254;60463;-81
2023/06/28 21:05:10;;;;;;;3.00;1.40;;;;;;;18.63;49.61;99591.15;107917;1254;60547;-82
2023/06/28 21:07:38;;;;;;;3.70;1.50;;;;;;;18.60;49.65;99596.08;107845;1254;73795;-81
2023/06/28 21:10:08;;;;;;;5.80;1.50;;;;;;;18.45;50.02;99591.10;107886;1254;72826;-82
2023/06/28 21:12:38;;;;;;;5.30;1.70;;;;;;;18.42;50.36;99591.52;107958;1255;71546;-83
2023/06/28 21:15:06;;;;;;;3.50;1.60;;;;;;;18.41;50.46;99588.78;107903;1254;60505;-82
2023/06/28 21:17:34;;;;;;;4.50;2.00;;;;;;;18.41;50.78;99593.73;107993;1259;60575;-82
2023/06/28 21:20:03;;;;;;;3.20;1.60;;;;;;;18.38;50.90;99595.63;107906;1254;72986;-82
2023/06/28 21:22:31;;;;;;;5.60;1.80;;;;;;;18.34;51.21;99594.34;107954;1254;72700;-82
2023/06/28 21:24:59;;;;;;;5.90;2.00;;;;;;;18.33;51.47;99593.75;107932;1254;72680;-81
2023/06/28 21:27:27;;;;;;;3.50;1.80;;;;;;;18.34;51.79;99596.41;108066;1253;61928;-83
2023/06/28 21:29:55;;;;;;;4.00;2.00;;;;;;;18.31;51.94;99593.23;108008;1253;60326;-81
2023/06/28 21:32:23;;;;;;;2.80;1.60;;;;;;;18.30;51.84;99589.34;108000;1254;74004;-83
2023/06/28 21:34:51;;;;;;;3.50;1.60;;;;;;;18.30;51.88;99587.63;108091;1254;72702;-82
2023/06/28 21:37:18;;;;;;;4.50;2.00;;;;;;;18.31;52.19;99589.29;108269;1254;72503;-83
2023/06/28 21:39:46;;;;;;;5.50;1.70;;;;;;;18.32;52.23;99591.63;108065;1254;60337;-82
2023/06/28 21:42:13;;;;;;;5.20;1.90;;;;;;;18.33;52.36;99590.58;108098;1254;60459;-81
2023/06/28 21:44:42;;;;;;;3.60;1.50;;;;;;;18.33;52.44;99586.89;108073;1253;73806;-81
2023/06/28 21:47:10;;;;;;;5.20;1.70;;;;;;;18.33;52.59;99586.02;108076;1254;73522;-81
2023/06/28 21:49:37;;;;;;;3.50;1.60;;;;;;;18.35;52.65;99585.95;108075;1254;72726;-81
2023/06/28 21:52:05;;;;;;;4.00;1.40;;;;;;;18.36;52.75;99579.41;108014;1254;60494;-81
2023/06/28 21:54:33;;;;;;;6.00;1.70;;;;;;;18.32;52.98;99574.80;108169;1253;60296;-82
2023/06/28 21:57:01;;;;;;;3.80;1.60;;;;;;;18.31;53.04;99572.69;108121;1253;72769;-81
2023/06/28 21:59:30;;;;;;;3.80;1.70;;;;;;;18.34;53.22;99576.04;108044;1254;72004;-82
2023/06/28 22:01:57;;;;;;;5.40;1.60;;;;;;;18.34;53.36;99575.66;108030;1254;72720;-83
2023/06/28 22:04:26;;;;;;;4.30;1.70;;;;;;;18.31;53.44;99571.77;108054;1259;60363;-83
2023/06/28 22:06:54;;;;;;;4.20;1.80;;;;;;;18.31;53.45;99567.95;108085;1254;60322;-83
2023/06/28 22:09:34;;;;;;;3.80;1.60;;;;;;;18.33;53.44;99567.05;108084;1254;72868;-82
2023/06/28 22:12:03;;;;;;;3.60;1.50;;;;;;;18.33;53.64;99562.46;108166;1254;71968;-82
2023/06/28 22:14:32;;;;;;;3.80;1.50;;;;;;;18.33;53.58;99562.88;108084;1259;71455;-83
2023/06/28 22:17:00;;;;;;;3.80;1.60;;;;;;;18.34;53.61;99560.13;107939;1254;60291;-82
2023/06/28 22:19:29;;;;;;;2.40;1.30;;;;;;;18.35;53.73;99559.61;108065;1256;60444;-82
2023/06/28 22:21:57;;;;;;;3.50;1.30;;;;;;;18.39;53.63;99554.89;108098;1254;72897;-82
2023/06/28 22:24:26;;;;;;;2.40;1.40;;;;;;;18.43;53.37;99553.39;108083;1254;71775;-82
2023/06/28 22:26:54;;;;;;;2.30;1.30;;;;;;;18.45;53.38;99553.88;108021;1254;72634;-82
2023/06/28 22:29:21;;;;;;;4.60;1.60;;;;;;;18.49;53.24;99553.67;108057;1254;59289;-83
2023/06/28 22:31:49;;;;;;;2.90;1.50;;;;;;;18.49;53.12;99552.98;108168;1254;60229;-83
2023/06/28 22:34:18;;;;;;;3.40;1.70;;;;;;;18.47;53.13;99549.30;108131;1254;73955;-83
2023/06/28 22:36:47;;;;;;;3.20;1.50;;;;;;;18.48;53.10;99545.30;108128;1254;72949;-84
2023/06/28 22:39:16;;;;;;;3.90;1.80;;;;;;;18.48;52.91;99543.98;108046;1254;71390;-84
2023/06/28 22:41:45;;;;;;;6.10;1.60;;;;;;;18.44;53.01;99544.39;108066;1254;62856;-83
2023/06/28 22:44:14;;;;;;;3.80;1.40;;;;;;;18.38;53.26;99544.59;108124;1254;60307;-83
2023/06/28 22:46:49;;;;;;;3.30;1.80;;;;;;;18.36;53.20;99539.89;108131;1253;75243;-84
2023/06/28 22:49:36;;;;;;;3.30;1.80;;;;;;;18.37;53.19;99534.41;108103;1254;72763;-85
2023/06/28 22:52:08;;;;;;;3.00;1.60;;;;;;;18.32;53.14;99535.03;108140;1254;72448;-83
2023/06/28 22:54:36;;;;;;;4.00;1.50;;;;;;;18.28;53.10;99529.71;107967;1254;58787;-84
2023/06/28 22:57:04;;;;;;;5.00;1.60;;;;;;;18.26;53.14;99532.05;108123;1254;60337;-83
2023/06/28 22:59:32;;;;;;;3.90;1.50;;;;;;;18.21;53.26;99525.60;108118;1254;73907;-83
2023/06/28 23:01:59;;;;;;;3.00;1.50;;;;;;;18.13;53.40;99522.52;108137;1253;73070;-84
2023/06/28 23:04:28;;;;;;;4.20;1.60;;;;;;;18.09;53.66;99523.04;108006;1254;71382;-82
2023/06/28 23:06:56;;;;;;;3.60;1.40;;;;;;;18.06;53.72;99521.00;107791;1254;60680;-82
2023/06/28 23:09:26;;;;;;;3.70;1.30;;;;;;;18.07;53.70;99520.61;108196;1254;60549;-84
2023/06/28 23:11:56;;;;;;;6.00;1.60;;;;;;;18.09;53.71;99522.85;108124;1254;72888;-83
2023/06/28 23:14:27;;;;;;;3.80;1.60;;;;;;;18.08;53.85;99518.81;108104;1253;73036;-83
2023/06/28 23:16:54;;;;;;;4.90;2.00;;;;;;;18.03;53.96;99518.58;107947;1254;72664;-83
2023/06/28 23:19:22;;;;;;;3.10;1.50;;;;;;;17.98;54.07;99519.09;108036;1259;60248;-82
2023/06/28 23:21:50;;;;;;;3.80;1.40;;;;;;;17.95;54.18;99519.89;108094;1254;60546;-83
2023/06/28 23:24:18;;;;;;;3.90;1.50;;;;;;;17.93;54.27;99517.46;108080;1253;74430;-83
2023/06/28 23:26:48;;;;;;;5.10;1.50;;;;;;;17.92;54.53;99517.17;108103;1254;71609;-83
2023/06/28 23:29:17;;;;;;;3.80;1.50;;;;;;;17.84;54.74;99508.45;108041;1254;72139;-84
2023/06/28 23:31:45;;;;;;;3.80;1.60;;;;;;;17.83;54.74;99510.58;108069;1254;60274;-83
2023/06/28 23:34:17;;;;;;;4.80;1.80;;;;;;;17.80;54.81;99508.19;108070;1253;59817;-83
2023/06/28 23:36:49;;;;;;;3.30;1.40;;;;;;;17.74;54.98;99504.75;108034;1254;72597;-84
2023/06/28 23:39:18;;;;;;;3.10;1.10;;;;;;;17.70;55.32;99503.10;108106;1254;71614;-83
2023/06/28 23:41:47;;;;;;;3.00;1.40;;;;;;;17.66;55.47;99503.55;108058;1254;71481;-83
2023/06/28 23:44:15;;;;;;;5.10;1.50;;;;;;;17.62;55.59;99502.17;108093;1259;61710;-83
2023/06/28 23:46:43;;;;;;;4.50;1.40;;;;;;;17.64;55.69;99498.35;107944;1259;60320;-83
2023/06/28 23:49:12;;;;;;;3.10;1.40;;;;;;;17.63;55.73;99494.70;108080;1254;73862;-83
2023/06/28 23:51:40;;;;;;;3.30;1.60;;;;;;;17.63;55.97;99496.54;107984;1254;72839;-83
2023/06/28 23:54:07;;;;;;;3.10;1.50;;;;;;;17.58;55.98;99491.77;108192;1254;72816;-82
2023/06/28 23:56:35;;;;;;;2.90;1.40;;;;;;;17.58;56.14;99490.84;108093;1254;62158;-83
2023/06/28 23:59:03;;;;;;;2.40;1.20;;;;;;;17.59;56.24;99487.16;108152;1254;60347;-83
